createdAt,value
2023-03-11T00:01:56.239Z,70.50
2023-03-11T00:04:45.289Z,73.70
2023-03-11T00:07:34.032Z,77.00
2023-03-11T00:10:25.528Z,80.50
2023-03-11T00:13:16.480Z,81.40
2023-03-11T00:16:07.455Z,82.30
2023-03-11T00:18:56.142Z,80.80
2023-03-11T00:21:44.907Z,80.00
2023-03-11T00:24:33.573Z,79.20
2023-03-11T00:27:22.289Z,78.90
2023-03-11T00:30:14.028Z,79.10
2023-03-11T00:33:04.414Z,77.30
2023-03-11T00:35:53.261Z,76.30
2023-03-11T00:38:41.992Z,77.90
2023-03-11T00:41:30.757Z,80.40
2023-03-11T00:44:19.421Z,85.10
2023-03-11T00:47:08.899Z,88.30
2023-03-11T00:49:58.981Z,89.20
2023-03-11T00:52:49.204Z,90.50
2023-03-11T00:55:38.173Z,90.10
2023-03-11T00:58:29.150Z,86.90
2023-03-11T01:01:20.891Z,85.10
2023-03-11T01:04:09.588Z,84.00
2023-03-11T01:06:59.743Z,81.90
2023-03-11T01:09:48.464Z,78.60
2023-03-11T01:12:37.146Z,78.10
2023-03-11T01:15:28.498Z,78.00
2023-03-11T01:18:17.265Z,78.80
2023-03-11T01:21:06.618Z,78.20
2023-03-11T01:23:56.733Z,77.60
2023-03-11T01:26:45.735Z,74.80
2023-03-11T01:29:34.360Z,74.40
2023-03-11T01:32:23.169Z,74.40
2023-03-11T01:35:13.708Z,73.20
2023-03-11T01:38:02.476Z,71.80
2023-03-11T01:40:53.762Z,71.20
2023-03-11T01:43:51.814Z,72.40
2023-03-11T01:47:21.025Z,72.90
2023-03-11T01:50:13.971Z,71.20
2023-03-11T01:53:03.049Z,71.10
2023-03-11T01:55:53.358Z,71.00
2023-03-11T01:58:45.863Z,69.60
2023-03-11T02:01:36.477Z,70.10
2023-03-11T02:04:26.460Z,68.30
2023-03-11T02:07:16.134Z,67.70
2023-03-11T02:10:07.317Z,68.60
2023-03-11T02:12:58.081Z,69.20
2023-03-11T02:15:47.101Z,72.00
2023-03-11T02:18:36.006Z,77.20
2023-03-11T02:21:27.293Z,82.70
2023-03-11T02:24:20.966Z,86.50
2023-03-11T02:27:13.447Z,88.60
2023-03-11T02:30:02.768Z,89.40
2023-03-11T02:32:51.908Z,87.70
2023-03-11T02:35:42.128Z,87.90
2023-03-11T02:38:30.862Z,88.80
2023-03-11T02:41:19.642Z,85.70
2023-03-11T02:44:12.863Z,85.30
2023-03-11T02:47:02.111Z,84.90
2023-03-11T02:49:50.890Z,83.00
2023-03-11T02:52:39.867Z,79.90
2023-03-11T02:55:28.528Z,80.60
2023-03-11T02:58:17.197Z,79.80
2023-03-11T03:01:07.543Z,79.60
2023-03-11T03:03:56.397Z,79.30
2023-03-11T03:06:45.069Z,79.10
2023-03-11T03:09:34.425Z,77.60
2023-03-11T03:12:23.082Z,76.40
2023-03-11T03:15:13.234Z,75.30
2023-03-11T03:18:03.401Z,74.70
2023-03-11T03:20:52.650Z,74.90
2023-03-11T03:23:41.393Z,74.80
2023-03-11T03:26:30.063Z,73.80
2023-03-11T03:29:18.943Z,74.70
2023-03-11T03:32:08.243Z,73.30
2023-03-11T03:34:59.273Z,72.30
2023-03-11T03:37:48.036Z,71.70
2023-03-11T03:40:36.947Z,73.10
2023-03-11T03:43:25.715Z,72.10
2023-03-11T03:46:14.460Z,71.60
2023-03-11T03:49:03.165Z,73.30
2023-03-11T03:51:53.270Z,72.40
2023-03-11T03:54:42.077Z,71.10
2023-03-11T03:57:30.805Z,70.90
2023-03-11T04:00:20.383Z,70.60
2023-03-11T04:03:09.126Z,70.50
2023-03-11T04:06:07.992Z,70.50
2023-03-11T04:08:58.131Z,71.10
2023-03-11T04:11:46.830Z,71.00
2023-03-11T04:14:35.552Z,72.30
2023-03-11T04:17:24.234Z,70.50
2023-03-11T04:20:13.839Z,70.60
2023-03-11T04:23:02.526Z,70.40
2023-03-11T04:25:52.772Z,69.40
2023-03-11T04:28:41.547Z,69.40
2023-03-11T04:31:30.228Z,68.90
2023-03-11T04:34:18.925Z,68.30
2023-03-11T04:37:07.732Z,67.20
2023-03-11T04:39:56.427Z,67.10
2023-03-11T04:42:46.609Z,66.10
2023-03-11T04:45:36.903Z,64.30
2023-03-11T04:48:27.252Z,61.50
2023-03-11T04:51:15.908Z,61.50
2023-03-11T04:54:04.713Z,60.20
2023-03-11T04:56:53.429Z,59.90
2023-03-11T04:59:43.957Z,59.70
2023-03-11T05:02:32.624Z,59.50
2023-03-11T05:05:21.530Z,59.10
2023-03-11T05:08:10.234Z,58.70
2023-03-11T05:10:58.901Z,59.30
2023-03-11T05:13:47.623Z,57.90
2023-03-11T05:16:37.744Z,58.60
2023-03-11T05:19:34.722Z,57.80
2023-03-11T05:22:23.815Z,56.60
2023-03-11T05:25:12.534Z,56.20
2023-03-11T05:28:01.220Z,54.50
2023-03-11T05:30:50.365Z,54.60
2023-03-11T05:33:40.550Z,55.30
2023-03-11T05:36:29.285Z,55.90
2023-03-11T05:39:18.063Z,54.20
2023-03-11T05:42:07.532Z,55.00
2023-03-11T05:44:56.213Z,56.20
2023-03-11T05:47:44.896Z,53.40
2023-03-11T05:50:35.076Z,53.70
2023-03-11T05:53:23.753Z,52.40
2023-03-11T05:56:12.441Z,52.60
2023-03-11T05:59:01.177Z,51.50
2023-03-11T06:01:49.952Z,53.90
2023-03-11T06:04:39.013Z,53.20
2023-03-11T06:07:29.202Z,50.50
2023-03-11T06:10:18.232Z,49.80
2023-03-11T06:13:06.926Z,50.80
2023-03-11T06:15:55.655Z,50.00
2023-03-11T06:18:44.311Z,50.80
2023-03-11T06:21:33.084Z,49.50
2023-03-11T06:24:23.278Z,45.40
2023-03-11T06:27:11.935Z,38.40
2023-03-11T06:30:00.705Z,33.80
2023-03-11T06:32:49.500Z,25.90
2023-03-11T06:35:38.290Z,22.40
2023-03-11T06:38:27.115Z,17.70
2023-03-11T06:41:18.232Z,13.30
2023-03-11T06:44:07.026Z,9.60
2023-03-11T06:46:55.804Z,5.40
2023-03-11T06:49:44.504Z,1.80
2023-03-11T06:52:33.254Z,4.20
2023-03-11T06:55:22.442Z,2.30
2023-03-11T06:58:12.503Z,1.00
2023-03-11T07:01:05.772Z,1.00
2023-03-11T07:03:54.581Z,1.00
2023-03-11T07:06:43.786Z,1.00
2023-03-11T07:09:32.458Z,1.00
2023-03-11T07:12:23.162Z,1.00
2023-03-11T07:15:14.178Z,1.00
2023-03-11T07:18:02.900Z,1.00
2023-03-11T07:20:51.578Z,1.00
2023-03-11T07:23:40.245Z,1.00
2023-03-11T07:26:30.940Z,1.00
2023-03-11T07:29:20.350Z,1.00
2023-03-11T07:32:10.751Z,1.00
2023-03-11T07:34:59.493Z,1.00
2023-03-11T07:37:48.153Z,2.10
2023-03-11T07:40:37.008Z,3.10
2023-03-11T07:43:25.733Z,6.10
2023-03-11T07:46:18.572Z,8.00
2023-03-11T07:49:08.879Z,6.40
2023-03-11T07:51:57.566Z,1.80
2023-03-11T07:54:47.403Z,1.00
2023-03-11T07:57:36.073Z,1.00
2023-03-11T08:00:33.832Z,1.00
2023-03-11T08:03:22.724Z,1.00
2023-03-11T08:06:17.084Z,1.00
2023-03-11T08:09:07.954Z,1.00
2023-03-11T08:11:56.612Z,1.00
2023-03-11T08:14:45.309Z,1.00
2023-03-11T08:17:33.959Z,2.50
2023-03-11T08:20:22.698Z,1.40
2023-03-11T08:23:12.776Z,1.00
2023-03-11T08:26:05.148Z,1.00
2023-03-11T08:28:53.903Z,1.00
2023-03-11T08:31:42.728Z,1.50
2023-03-11T08:34:33.032Z,1.00
2023-03-11T08:37:24.292Z,1.00
2023-03-11T08:40:15.254Z,2.40
2023-03-11T08:43:04.418Z,2.20
2023-03-11T08:45:53.261Z,1.00
2023-03-11T08:48:42.005Z,1.00
2023-03-11T08:51:32.528Z,1.00
2023-03-11T08:54:21.205Z,1.00
2023-03-11T08:57:11.617Z,1.00
2023-03-11T09:00:00.479Z,1.00
2023-03-11T09:02:49.294Z,1.00
2023-03-11T09:05:38.551Z,1.00
2023-03-11T09:08:27.475Z,1.00
2023-03-11T09:11:16.447Z,1.00
2023-03-11T09:14:06.707Z,1.00
2023-03-11T09:16:55.573Z,1.00
2023-03-11T09:19:44.317Z,1.00
2023-03-11T09:22:33.159Z,1.00
2023-03-11T09:25:21.933Z,1.00
2023-03-11T09:28:11.038Z,1.00
2023-03-11T09:31:01.225Z,1.00
2023-03-11T09:33:52.506Z,1.00
2023-03-11T09:36:42.733Z,1.00
2023-03-11T09:39:31.571Z,1.00
2023-03-11T09:42:27.268Z,1.00
2023-03-11T09:45:19.707Z,1.00
2023-03-11T09:48:22.827Z,1.00
2023-03-11T09:51:17.150Z,1.00
2023-03-11T09:54:10.756Z,1.00
2023-03-11T09:57:02.210Z,1.00
2023-03-11T09:59:51.315Z,1.00
2023-03-11T10:02:41.735Z,1.00
2023-03-11T10:05:33.297Z,1.00
2023-03-11T10:08:27.836Z,1.00
2023-03-11T10:11:45.429Z,1.00
2023-03-11T10:14:56.555Z,1.00
2023-03-11T10:17:58.250Z,1.00
2023-03-11T10:20:58.989Z,1.00
2023-03-11T10:24:04.355Z,1.00
2023-03-11T10:26:56.224Z,1.00
2023-03-11T10:29:53.431Z,1.00
2023-03-11T10:32:47.867Z,1.00
2023-03-11T10:35:40.521Z,1.00
2023-03-11T10:38:35.393Z,1.00
2023-03-11T10:41:30.167Z,1.00
2023-03-11T10:44:24.019Z,1.00
2023-03-11T10:47:18.254Z,1.00
2023-03-11T10:50:08.553Z,1.00
2023-03-11T10:53:08.515Z,1.00
2023-03-11T10:56:00.732Z,1.00
2023-03-11T10:58:50.928Z,1.00
2023-03-11T11:01:39.647Z,1.00
2023-03-11T11:04:32.122Z,1.00
2023-03-11T11:07:31.073Z,1.00
2023-03-11T11:10:21.754Z,1.00
2023-03-11T11:13:23.105Z,1.00
2023-03-11T11:16:21.074Z,1.00
2023-03-11T11:19:11.671Z,1.00
2023-03-11T11:22:06.707Z,1.00
2023-03-11T11:24:57.332Z,1.00
2023-03-11T11:27:56.208Z,1.00
2023-03-11T11:30:56.806Z,1.00
2023-03-11T11:33:52.459Z,1.00
2023-03-11T11:36:41.204Z,1.00
2023-03-11T11:39:34.291Z,1.00
2023-03-11T11:42:24.065Z,1.00
2023-03-11T11:45:17.262Z,1.00
2023-03-11T11:48:15.683Z,1.00
2023-03-11T11:51:15.379Z,1.00
2023-03-11T11:54:11.908Z,1.00
2023-03-11T11:57:04.149Z,1.00
2023-03-11T11:59:52.999Z,1.00
2023-03-11T12:02:57.676Z,1.00
2023-03-11T12:05:54.063Z,1.00
2023-03-11T12:08:52.679Z,1.00
2023-03-11T12:11:45.265Z,1.00
2023-03-11T12:14:42.953Z,1.00
2023-03-11T12:17:33.226Z,1.00
2023-03-11T12:20:29.067Z,1.00
2023-03-11T12:23:27.716Z,1.00
2023-03-11T12:26:20.773Z,1.00
2023-03-11T12:29:16.162Z,1.00
2023-03-11T12:32:05.552Z,1.00
2023-03-11T12:34:54.487Z,1.00
2023-03-11T12:37:43.782Z,1.00
2023-03-11T12:40:52.009Z,1.00
2023-03-11T12:44:06.971Z,1.00
2023-03-11T12:47:22.628Z,1.00
2023-03-11T12:50:40.695Z,1.00
2023-03-11T12:53:45.205Z,1.00
2023-03-11T12:56:41.452Z,1.00
2023-03-11T13:07:09.052Z,1.00
2023-03-11T13:10:18.906Z,1.00
2023-03-11T13:13:42.315Z,1.00
2023-03-11T13:16:41.733Z,1.00
2023-03-11T13:20:00.063Z,1.00
2023-03-11T13:23:15.757Z,1.00
2023-03-11T13:26:33.237Z,1.00
2023-03-11T13:29:53.219Z,1.00
2023-03-11T13:33:12.341Z,1.00
2023-03-11T13:36:11.354Z,1.00
2023-03-11T13:39:30.288Z,1.00
2023-03-11T13:42:25.302Z,1.00
2023-03-11T13:45:28.579Z,1.00
2023-03-11T13:51:50.511Z,1.00
2023-03-11T14:01:12.849Z,1.00
2023-03-11T14:04:10.013Z,1.00
2023-03-11T14:07:09.500Z,1.00
2023-03-11T14:10:40.922Z,1.00
2023-03-11T14:13:31.135Z,1.00
2023-03-11T14:16:22.690Z,1.00
2023-03-11T14:19:18.302Z,1.00
2023-03-11T14:22:09.763Z,1.00
2023-03-11T14:24:59.749Z,1.00
2023-03-11T14:27:54.634Z,1.00
2023-03-11T14:30:56.307Z,1.00
2023-03-11T14:33:45.136Z,1.00
2023-03-11T14:36:44.261Z,1.00
2023-03-11T14:39:57.894Z,1.00
2023-03-11T14:42:53.840Z,1.00
2023-03-11T14:45:44.386Z,1.00
2023-03-11T14:48:38.461Z,1.00
2023-03-11T14:51:35.153Z,1.00
2023-03-11T14:54:42.143Z,1.00
2023-03-11T14:57:41.517Z,1.00
2023-03-11T15:04:05.544Z,1.00
2023-03-11T15:06:57.732Z,1.00
2023-03-11T15:10:00.401Z,1.00
2023-03-11T15:16:11.125Z,1.00
2023-03-11T15:19:11.363Z,1.00
2023-03-11T15:26:01.406Z,1.00
2023-03-11T15:29:00.120Z,1.00
2023-03-11T15:31:59.157Z,1.00
2023-03-11T15:35:06.977Z,1.00
2023-03-11T15:38:32.854Z,1.00
2023-03-11T15:41:24.467Z,1.00
2023-03-11T15:44:27.355Z,1.00
2023-03-11T15:47:54.004Z,1.00
2023-03-11T15:54:04.852Z,1.00
2023-03-11T15:56:56.136Z,1.00
2023-03-11T15:59:44.886Z,1.00
2023-03-11T16:02:34.004Z,1.00
2023-03-11T16:05:24.840Z,1.00
2023-03-11T16:08:14.804Z,1.00
2023-03-11T16:11:03.490Z,1.00
2023-03-11T16:13:53.539Z,1.00
2023-03-11T16:16:42.668Z,1.00
2023-03-11T16:19:31.900Z,1.00
2023-03-11T16:22:22.375Z,1.00
2023-03-11T16:25:26.089Z,1.00
2023-03-11T16:28:16.921Z,1.00
2023-03-11T16:31:08.743Z,1.00
2023-03-11T16:33:57.480Z,1.00
2023-03-11T16:36:46.172Z,1.00
2023-03-11T16:39:35.655Z,1.00
2023-03-11T16:42:25.036Z,1.00
2023-03-11T16:45:14.827Z,1.00
2023-03-11T16:48:06.590Z,1.00
2023-03-11T16:50:55.313Z,1.00
2023-03-11T16:54:14.526Z,1.00
2023-03-11T16:57:03.297Z,1.00
2023-03-11T16:59:52.494Z,1.00
2023-03-11T17:02:41.238Z,1.00
2023-03-11T17:05:31.454Z,1.00
2023-03-11T17:08:20.080Z,1.00
2023-03-11T17:11:16.227Z,1.00
2023-03-11T17:14:15.833Z,1.00
2023-03-11T17:17:05.538Z,1.00
2023-03-11T17:19:54.232Z,1.00
2023-03-11T17:22:44.357Z,1.00
2023-03-11T17:25:33.061Z,1.00
2023-03-11T17:28:21.738Z,1.00
2023-03-11T17:31:13.908Z,1.00
2023-03-11T17:34:03.651Z,1.00
2023-03-11T17:36:52.546Z,1.00
2023-03-11T17:39:42.637Z,1.00
2023-03-11T17:42:31.408Z,1.00
2023-03-11T17:45:20.279Z,1.00
2023-03-11T17:48:08.931Z,1.00
2023-03-11T17:50:58.006Z,1.00
2023-03-11T17:53:48.195Z,1.00
2023-03-11T17:56:38.498Z,1.90
2023-03-11T17:59:27.519Z,3.00
2023-03-11T18:02:16.457Z,1.00
2023-03-11T18:05:05.716Z,3.90
2023-03-11T18:07:54.467Z,5.30
2023-03-11T18:10:43.388Z,5.20
2023-03-11T18:13:34.850Z,4.50
2023-03-11T18:16:26.175Z,2.50
2023-03-11T18:19:15.383Z,4.90
2023-03-11T18:22:06.161Z,6.40
2023-03-11T18:24:56.153Z,9.90
2023-03-11T18:27:44.952Z,10.70
2023-03-11T18:30:38.032Z,10.80
2023-03-11T18:33:27.079Z,15.20
2023-03-11T18:36:17.419Z,17.90
2023-03-11T18:39:07.090Z,15.70
2023-03-11T18:41:56.169Z,14.50
2023-03-11T18:44:52.550Z,14.80
2023-03-11T19:07:31.459Z,16.40
2023-03-11T19:10:20.312Z,18.00
2023-03-11T19:13:09.622Z,17.10
2023-03-11T19:16:01.986Z,14.40
2023-03-11T19:19:14.469Z,15.80
2023-03-11T19:22:05.555Z,15.60
2023-03-11T19:24:56.667Z,13.50
2023-03-11T19:27:45.506Z,14.20
2023-03-11T19:30:34.530Z,17.80
2023-03-11T19:33:24.413Z,20.00
2023-03-11T19:36:13.490Z,20.90
2023-03-11T19:39:02.591Z,21.90
2023-03-11T19:41:52.935Z,21.70
2023-03-11T19:44:41.693Z,20.80
2023-03-11T19:47:30.610Z,16.80
2023-03-11T19:50:19.734Z,16.50
2023-03-11T19:53:08.740Z,20.20
2023-03-11T19:55:58.155Z,20.50
2023-03-11T19:58:48.606Z,17.80
2023-03-11T20:01:37.888Z,16.80
2023-03-11T20:04:26.878Z,15.80
2023-03-11T20:07:15.957Z,16.40
2023-03-11T20:10:05.844Z,19.80
2023-03-11T20:13:02.161Z,19.10
2023-03-11T20:15:53.073Z,17.10
2023-03-11T20:18:42.389Z,19.00
2023-03-11T20:21:31.684Z,18.60
2023-03-11T20:24:20.658Z,13.50
2023-03-11T20:27:09.550Z,15.40
2023-03-11T20:29:58.342Z,12.60
2023-03-11T20:32:48.865Z,11.70
2023-03-11T20:35:37.804Z,16.10
2023-03-11T20:38:26.972Z,17.90
2023-03-11T20:41:16.926Z,19.40
2023-03-11T20:44:07.445Z,18.30
2023-03-11T20:46:56.412Z,17.10
2023-03-11T20:49:46.887Z,19.40
2023-03-11T20:52:36.752Z,19.80
2023-03-11T20:55:26.454Z,19.40
2023-03-11T20:58:15.270Z,19.60
2023-03-11T21:01:12.128Z,19.00
2023-03-11T21:04:03.084Z,20.50
2023-03-11T21:06:55.046Z,20.60
2023-03-11T21:09:43.783Z,19.10
2023-03-11T21:12:32.589Z,20.10
2023-03-11T21:15:21.823Z,18.60
2023-03-11T21:18:10.879Z,17.50
2023-03-11T21:20:59.954Z,17.10
2023-03-11T21:23:51.107Z,16.00
2023-03-11T21:26:39.830Z,16.50
2023-03-11T21:29:29.966Z,14.80
2023-03-11T21:32:18.921Z,16.70
2023-03-11T21:35:08.150Z,16.60
2023-03-11T21:37:57.073Z,16.80
2023-03-11T21:40:47.488Z,17.40
2023-03-11T21:43:37.062Z,17.60
2023-03-11T21:46:28.273Z,18.20
2023-03-11T21:49:17.233Z,18.90
2023-03-11T21:52:06.288Z,19.60
2023-03-11T21:54:56.553Z,19.10
2023-03-11T21:57:46.930Z,19.10
2023-03-11T22:00:35.832Z,18.30
2023-03-11T22:03:24.724Z,19.70
2023-03-11T22:06:14.232Z,18.50
2023-03-11T22:09:03.519Z,18.70
2023-03-11T22:11:52.229Z,17.30
2023-03-11T22:14:42.464Z,17.30
2023-03-11T22:17:31.472Z,17.50
2023-03-11T22:20:20.619Z,18.20
2023-03-11T22:23:09.525Z,17.60
2023-03-11T22:25:58.532Z,19.40
2023-03-11T22:28:47.265Z,18.80
2023-03-11T22:31:37.437Z,19.40
2023-03-11T22:34:26.146Z,20.40
2023-03-11T22:37:14.913Z,20.80
2023-03-11T22:40:05.548Z,20.40
2023-03-11T22:42:54.239Z,21.90
2023-03-11T22:45:43.051Z,21.20
2023-03-11T22:48:33.870Z,21.10
2023-03-11T22:51:22.660Z,19.90
2023-03-11T22:54:11.460Z,19.00
2023-03-11T22:57:00.192Z,16.70
2023-03-11T22:59:48.901Z,18.70
2023-03-11T23:02:38.485Z,20.20
2023-03-11T23:05:28.917Z,21.60
2023-03-11T23:08:17.805Z,20.90
2023-03-11T23:11:08.620Z,19.40
2023-03-11T23:13:57.439Z,18.00
2023-03-11T23:16:47.188Z,17.10
2023-03-11T23:19:35.952Z,16.10
2023-03-11T23:22:26.082Z,14.70
2023-03-11T23:25:17.171Z,13.90
2023-03-11T23:28:07.021Z,15.70
2023-03-11T23:30:55.739Z,15.10
2023-03-11T23:33:45.171Z,13.50
2023-03-11T23:36:33.874Z,14.20
2023-03-11T23:39:24.087Z,15.40
2023-03-11T23:42:24.810Z,15.20
2023-03-11T23:45:14.118Z,12.90
2023-03-11T23:48:02.892Z,12.70
2023-03-11T23:50:52.503Z,13.60
2023-03-11T23:53:41.671Z,13.80
2023-03-11T23:56:31.748Z,12.70
2023-03-11T23:59:20.462Z,12.30
